createdAt,value
2023-08-15T00:01:45.905Z,84.12
2023-08-15T00:04:18.600Z,84.13
2023-08-15T00:06:51.562Z,83.91
2023-08-15T00:09:24.374Z,83.79
2023-08-15T00:11:57.229Z,83.81
2023-08-15T00:14:30.033Z,83.64
2023-08-15T00:17:04.533Z,83.55
2023-08-15T00:19:37.516Z,83.21
2023-08-15T00:22:10.423Z,83.10
2023-08-15T00:24:43.399Z,82.94
2023-08-15T00:27:16.197Z,82.89
2023-08-15T00:29:49.132Z,82.71
2023-08-15T00:32:23.396Z,82.99
2023-08-15T00:34:56.070Z,82.86
2023-08-15T00:37:28.900Z,82.90
2023-08-15T00:40:02.162Z,82.85
2023-08-15T00:42:34.813Z,82.87
2023-08-15T00:45:07.997Z,82.90
2023-08-15T00:47:42.151Z,82.74
2023-08-15T00:50:15.057Z,82.78
2023-08-15T00:52:47.962Z,82.87
2023-08-15T00:55:21.054Z,82.59
2023-08-15T00:57:53.954Z,82.78
2023-08-15T01:00:27.442Z,82.69
2023-08-15T01:03:01.720Z,82.92
2023-08-15T01:05:34.664Z,82.81
2023-08-15T01:08:08.008Z,82.98
2023-08-15T01:10:41.044Z,83.08
2023-08-15T01:13:17.175Z,83.08
2023-08-15T01:15:51.810Z,83.42
2023-08-15T01:18:29.414Z,83.41
2023-08-15T01:21:03.330Z,83.43
2023-08-15T01:23:43.678Z,83.71
2023-08-15T01:26:16.356Z,83.84
2023-08-15T01:28:49.078Z,83.88
2023-08-15T01:31:27.906Z,83.69
2023-08-15T01:34:04.472Z,83.77
2023-08-15T01:36:39.834Z,83.62
2023-08-15T01:39:15.750Z,83.51
2023-08-15T01:41:49.298Z,83.64
2023-08-15T01:44:22.689Z,83.64
2023-08-15T01:46:55.473Z,83.47
2023-08-15T01:49:28.233Z,83.50
2023-08-15T01:52:01.136Z,83.75
2023-08-15T01:54:35.205Z,83.78
2023-08-15T01:57:08.022Z,83.93
2023-08-15T01:59:40.644Z,83.81
2023-08-15T02:02:13.399Z,83.90
2023-08-15T02:04:46.156Z,84.07
2023-08-15T02:07:19.221Z,84.09
2023-08-15T02:09:53.716Z,83.87
2023-08-15T02:12:26.426Z,83.81
2023-08-15T02:14:59.074Z,83.50
2023-08-15T02:17:31.794Z,83.76
2023-08-15T02:20:04.712Z,83.62
2023-08-15T02:22:37.484Z,83.82
2023-08-15T02:25:12.089Z,83.75
2023-08-15T02:27:44.840Z,83.84
2023-08-15T02:30:18.072Z,83.92
2023-08-15T02:32:50.965Z,83.82
2023-08-15T02:35:23.776Z,83.67
2023-08-15T02:37:56.571Z,83.64
2023-08-15T02:40:31.099Z,83.81
2023-08-15T02:43:03.940Z,83.52
2023-08-15T02:45:36.705Z,83.61
2023-08-15T02:48:09.520Z,83.58
2023-08-15T02:50:42.267Z,83.54
2023-08-15T02:53:15.266Z,83.46
2023-08-15T02:55:52.964Z,83.25
2023-08-15T02:58:25.793Z,83.47
2023-08-15T03:00:58.580Z,83.43
2023-08-15T03:03:32.117Z,83.94
2023-08-15T03:06:05.453Z,83.51
2023-08-15T03:08:38.156Z,84.04
2023-08-15T03:11:12.293Z,83.64
2023-08-15T03:13:45.098Z,83.33
2023-08-15T03:16:18.121Z,83.35
2023-08-15T03:18:51.029Z,83.32
2023-08-15T03:21:23.984Z,83.20
2023-08-15T03:23:56.761Z,83.26
2023-08-15T03:26:31.178Z,83.20
2023-08-15T03:29:04.016Z,83.32
2023-08-15T03:31:36.892Z,83.37
2023-08-15T03:34:09.614Z,83.17
2023-08-15T03:36:42.488Z,82.99
2023-08-15T03:39:15.371Z,83.13
2023-08-15T03:41:49.645Z,82.93
2023-08-15T03:44:22.382Z,83.07
2023-08-15T03:46:55.277Z,83.08
2023-08-15T03:49:28.092Z,82.90
2023-08-15T03:52:00.998Z,82.90
2023-08-15T03:54:33.773Z,82.79
2023-08-15T03:57:08.176Z,83.04
2023-08-15T03:59:41.004Z,83.09
2023-08-15T04:02:13.917Z,83.12
2023-08-15T04:04:47.040Z,82.93
2023-08-15T04:07:20.189Z,83.20
2023-08-15T04:09:53.170Z,83.10
2023-08-15T04:12:27.470Z,82.97
2023-08-15T04:15:00.587Z,83.04
2023-08-15T04:17:33.748Z,82.91
2023-08-15T04:20:07.201Z,82.88
2023-08-15T04:22:40.228Z,82.82
2023-08-15T04:25:13.254Z,83.06
2023-08-15T04:27:47.556Z,82.85
2023-08-15T04:30:21.752Z,82.94
2023-08-15T04:32:54.535Z,82.91
2023-08-15T04:35:27.433Z,83.35
2023-08-15T04:38:00.240Z,83.12
2023-08-15T04:40:33.880Z,83.35
2023-08-15T04:43:08.558Z,83.17
2023-08-15T04:45:44.826Z,83.13
2023-08-15T04:48:18.472Z,83.19
2023-08-15T04:50:51.185Z,83.26
2023-08-15T04:53:23.900Z,83.29
2023-08-15T04:55:56.805Z,83.38
2023-08-15T04:58:30.963Z,83.24
2023-08-15T05:01:04.231Z,83.19
2023-08-15T05:03:37.301Z,83.33
2023-08-15T05:06:10.363Z,83.43
2023-08-15T05:08:43.271Z,83.55
2023-08-15T05:11:15.930Z,83.35
2023-08-15T05:13:50.100Z,83.53
2023-08-15T05:16:22.893Z,83.70
2023-08-15T05:18:55.632Z,83.52
2023-08-15T05:21:29.381Z,83.60
2023-08-15T05:24:02.276Z,83.78
2023-08-15T05:26:35.048Z,83.96
2023-08-15T05:29:09.261Z,83.94
2023-08-15T05:31:42.246Z,84.17
2023-08-15T05:34:14.983Z,84.25
2023-08-15T05:36:47.635Z,84.49
2023-08-15T05:39:20.450Z,84.38
2023-08-15T05:41:53.191Z,84.48
2023-08-15T05:44:27.532Z,84.34
2023-08-15T05:47:00.477Z,84.42
2023-08-15T05:49:33.138Z,84.58
2023-08-15T05:52:06.571Z,84.51
2023-08-15T05:54:39.410Z,84.36
2023-08-15T05:57:12.213Z,84.80
2023-08-15T05:59:47.131Z,84.67
2023-08-15T06:02:20.228Z,84.79
2023-08-15T06:04:53.116Z,85.00
2023-08-15T06:07:25.951Z,84.84
2023-08-15T06:09:58.787Z,84.77
2023-08-15T06:12:31.518Z,84.75
2023-08-15T06:15:06.433Z,84.62
2023-08-15T06:17:40.348Z,84.71
2023-08-15T06:20:13.411Z,84.31
2023-08-15T06:22:46.298Z,84.42
2023-08-15T06:25:19.199Z,84.44
2023-08-15T06:27:51.950Z,84.44
2023-08-15T06:30:26.630Z,84.24
2023-08-15T06:32:59.503Z,84.43
2023-08-15T06:35:32.428Z,84.35
2023-08-15T06:38:05.483Z,84.15
2023-08-15T06:40:38.547Z,84.18
2023-08-15T06:43:11.422Z,84.21
2023-08-15T06:45:45.766Z,84.73
2023-08-15T06:48:18.598Z,84.60
2023-08-15T06:50:51.487Z,84.27
2023-08-15T06:53:24.192Z,84.23
2023-08-15T06:55:56.907Z,84.25
2023-08-15T06:58:29.759Z,84.07
2023-08-15T07:01:04.258Z,84.06
2023-08-15T07:03:37.344Z,83.73
2023-08-15T07:06:10.350Z,83.59
2023-08-15T07:08:43.400Z,83.72
2023-08-15T07:11:16.203Z,83.70
2023-08-15T07:13:48.926Z,83.40
2023-08-15T07:16:24.946Z,83.44
2023-08-15T07:18:57.726Z,83.66
2023-08-15T07:21:30.597Z,83.55
2023-08-15T07:24:03.513Z,83.79
2023-08-15T07:26:37.494Z,84.19
2023-08-15T07:29:12.245Z,84.82
2023-08-15T07:31:46.955Z,84.73
2023-08-15T07:34:20.641Z,85.34
2023-08-15T07:36:53.380Z,85.88
2023-08-15T07:39:26.250Z,85.91
2023-08-15T07:41:59.019Z,85.87
2023-08-15T07:44:32.145Z,85.86
2023-08-15T07:47:06.734Z,85.84
2023-08-15T07:49:39.994Z,85.47
2023-08-15T07:52:13.139Z,85.75
2023-08-15T07:54:46.767Z,85.73
2023-08-15T07:57:19.506Z,85.64
2023-08-15T07:59:52.330Z,85.57
2023-08-15T08:02:27.036Z,85.20
2023-08-15T08:05:00.154Z,84.93
2023-08-15T08:07:33.679Z,84.64
2023-08-15T08:10:07.010Z,84.68
2023-08-15T08:12:39.931Z,84.64
2023-08-15T08:15:12.649Z,84.50
2023-08-15T08:17:46.792Z,84.50
2023-08-15T08:20:21.757Z,84.49
2023-08-15T08:22:54.570Z,84.49
2023-08-15T08:25:27.336Z,84.78
2023-08-15T08:28:00.123Z,84.74
2023-08-15T08:30:35.566Z,84.78
2023-08-15T08:33:10.503Z,84.85
2023-08-15T08:35:43.237Z,85.12
2023-08-15T08:38:16.787Z,85.31
2023-08-15T08:40:49.737Z,85.22
2023-08-15T08:43:22.967Z,84.94
2023-08-15T08:45:57.396Z,84.77
2023-08-15T08:48:32.349Z,84.57
2023-08-15T08:51:06.634Z,84.13
2023-08-15T08:53:39.417Z,83.69
2023-08-15T08:56:12.355Z,83.36
2023-08-15T08:58:46.766Z,83.73
2023-08-15T09:01:20.341Z,84.36
2023-08-15T09:03:54.636Z,84.77
2023-08-15T09:06:27.533Z,84.65
2023-08-15T09:09:01.135Z,84.56
2023-08-15T09:11:37.025Z,85.47
2023-08-15T09:14:10.118Z,84.89
2023-08-15T09:16:47.548Z,85.13
2023-08-15T09:19:21.682Z,84.80
2023-08-15T09:21:54.445Z,84.52
2023-08-15T09:24:28.219Z,83.73
2023-08-15T09:27:06.348Z,82.43
2023-08-15T09:29:39.043Z,83.05
2023-08-15T09:32:11.929Z,82.43
2023-08-15T09:34:46.049Z,83.41
2023-08-15T09:37:22.518Z,83.65
2023-08-15T09:39:55.545Z,83.37
2023-08-15T09:42:29.105Z,83.78
2023-08-15T09:45:01.974Z,84.50
2023-08-15T09:47:35.062Z,84.33
2023-08-15T09:50:10.997Z,85.42
2023-08-15T09:52:44.806Z,85.43
2023-08-15T09:55:18.277Z,86.43
2023-08-15T09:57:52.447Z,85.49
2023-08-15T10:00:25.236Z,85.91
2023-08-15T10:03:02.837Z,85.13
2023-08-15T10:05:37.781Z,85.02
2023-08-15T10:08:11.062Z,85.49
2023-08-15T10:10:44.624Z,84.35
2023-08-15T10:13:17.586Z,83.71
2023-08-15T10:15:50.846Z,83.63
2023-08-15T10:18:23.697Z,83.30
2023-08-15T10:20:59.145Z,83.42
2023-08-15T10:23:32.162Z,82.68
2023-08-15T10:26:05.018Z,82.60
2023-08-15T10:28:38.138Z,82.56
2023-08-15T10:31:10.939Z,82.10
2023-08-15T10:33:44.578Z,82.06
2023-08-15T10:36:18.721Z,81.85
2023-08-15T10:38:54.693Z,81.62
2023-08-15T10:41:29.680Z,81.92
2023-08-15T10:44:04.286Z,81.12
2023-08-15T10:46:37.923Z,80.42
2023-08-15T10:49:12.360Z,80.51
2023-08-15T10:51:46.470Z,80.17
2023-08-15T10:54:19.236Z,79.85
2023-08-15T10:56:52.305Z,79.99
2023-08-15T10:59:25.038Z,79.94
2023-08-15T11:01:57.771Z,79.77
2023-08-15T11:04:32.273Z,79.65
2023-08-15T11:07:06.502Z,79.81
2023-08-15T11:09:39.233Z,78.69
2023-08-15T11:12:12.062Z,78.98
2023-08-15T11:14:44.846Z,78.16
2023-08-15T11:17:17.511Z,78.57
2023-08-15T11:19:50.208Z,79.65
2023-08-15T11:22:24.345Z,79.10
2023-08-15T11:24:57.068Z,79.99
2023-08-15T11:27:30.078Z,79.80
2023-08-15T11:30:02.780Z,80.22
2023-08-15T11:32:35.624Z,77.45
2023-08-15T11:35:08.630Z,80.67
2023-08-15T11:37:43.473Z,81.82
2023-08-15T11:40:16.198Z,81.53
2023-08-15T11:42:49.804Z,81.99
2023-08-15T11:45:24.102Z,81.41
2023-08-15T11:47:58.013Z,80.38
2023-08-15T11:50:43.582Z,81.52
2023-08-15T11:53:19.760Z,81.54
2023-08-15T11:55:53.120Z,82.12
2023-08-15T11:58:26.793Z,80.86
2023-08-15T12:01:02.456Z,80.90
2023-08-15T12:03:35.819Z,81.32
2023-08-15T12:06:09.386Z,81.04
2023-08-15T12:08:46.102Z,80.26
2023-08-15T12:11:20.053Z,77.80
2023-08-15T12:13:52.733Z,72.19
2023-08-15T12:16:25.656Z,76.46
2023-08-15T12:18:58.684Z,77.26
2023-08-15T12:21:31.408Z,77.15
2023-08-15T12:24:05.985Z,77.12
2023-08-15T12:26:38.676Z,77.15
2023-08-15T12:29:12.101Z,77.25
2023-08-15T12:31:46.784Z,75.54
2023-08-15T12:34:19.597Z,78.09
2023-08-15T12:36:52.429Z,76.27
2023-08-15T12:39:26.880Z,79.37
2023-08-15T12:41:59.589Z,77.96
2023-08-15T12:44:32.799Z,75.83
2023-08-15T12:47:05.682Z,75.55
2023-08-15T12:49:38.668Z,74.63
2023-08-15T12:52:11.517Z,76.59
2023-08-15T12:54:45.865Z,79.69
2023-08-15T12:57:18.578Z,77.13
2023-08-15T12:59:51.396Z,66.75
2023-08-15T13:02:24.382Z,76.06
2023-08-15T13:04:57.414Z,77.27
2023-08-15T13:07:30.184Z,78.28
2023-08-15T13:10:04.463Z,78.67
2023-08-15T13:12:37.229Z,78.38
2023-08-15T13:15:12.371Z,78.35
2023-08-15T13:17:46.712Z,78.97
2023-08-15T13:20:19.519Z,78.80
2023-08-15T13:22:52.289Z,78.43
2023-08-15T13:25:26.286Z,78.45
2023-08-15T13:27:58.996Z,79.23
2023-08-15T13:30:31.776Z,79.21
2023-08-15T13:33:04.762Z,79.03
2023-08-15T13:35:37.707Z,79.52
2023-08-15T13:38:10.645Z,79.68
2023-08-15T13:40:45.164Z,76.80
2023-08-15T13:43:18.392Z,76.71
2023-08-15T13:45:51.518Z,75.59
2023-08-15T13:48:24.364Z,79.42
2023-08-15T13:50:57.189Z,78.61
2023-08-15T13:53:30.312Z,79.41
2023-08-15T13:56:04.616Z,80.11
2023-08-15T13:58:37.348Z,80.10
2023-08-15T14:01:10.879Z,80.22
2023-08-15T14:03:43.716Z,80.39
2023-08-15T14:06:16.468Z,80.74
2023-08-15T14:08:49.266Z,80.01
2023-08-15T14:11:23.634Z,80.24
2023-08-15T14:13:56.399Z,80.33
2023-08-15T14:16:29.181Z,78.70
2023-08-15T14:19:02.286Z,80.27
2023-08-15T14:21:35.794Z,79.68
2023-08-15T14:24:11.052Z,78.94
2023-08-15T14:26:45.233Z,79.94
2023-08-15T14:29:17.991Z,79.62
2023-08-15T14:31:51.068Z,64.18
2023-08-15T14:34:23.776Z,77.38
2023-08-15T14:36:56.852Z,77.00
2023-08-15T14:39:29.667Z,79.17
2023-08-15T14:42:04.117Z,78.88
2023-08-15T14:44:37.024Z,77.84
2023-08-15T14:47:09.713Z,80.65
2023-08-15T14:49:42.541Z,80.68
2023-08-15T14:52:15.374Z,79.68
2023-08-15T14:54:48.221Z,80.97
2023-08-15T14:57:22.593Z,79.06
2023-08-15T14:59:55.315Z,79.53
2023-08-15T15:02:28.352Z,80.28
2023-08-15T15:05:01.379Z,79.64
2023-08-15T15:07:34.490Z,79.70
2023-08-15T15:10:07.874Z,78.97
2023-08-15T15:12:42.100Z,78.48
2023-08-15T15:15:15.228Z,79.93
2023-08-15T15:17:48.006Z,79.25
2023-08-15T15:20:20.804Z,78.90
2023-08-15T15:22:53.736Z,77.82
2023-08-15T15:25:26.425Z,81.57
2023-08-15T15:28:00.934Z,79.59
2023-08-15T15:30:33.610Z,78.85
2023-08-15T15:33:06.770Z,77.75
2023-08-15T15:35:39.890Z,77.66
2023-08-15T15:38:12.588Z,78.65
2023-08-15T15:40:45.413Z,78.05
2023-08-15T15:43:21.469Z,77.45
2023-08-15T15:45:54.229Z,77.77
2023-08-15T15:48:27.113Z,77.47
2023-08-15T15:50:59.833Z,77.69
2023-08-15T15:53:34.355Z,77.85
2023-08-15T15:56:07.050Z,77.28
2023-08-15T15:58:41.167Z,77.31
2023-08-15T16:01:14.248Z,76.96
2023-08-15T16:03:47.284Z,77.46
2023-08-15T16:06:20.114Z,77.17
2023-08-15T16:08:52.935Z,77.68
2023-08-15T16:11:25.635Z,76.91
2023-08-15T16:14:00.183Z,77.38
2023-08-15T16:16:32.926Z,77.25
2023-08-15T16:19:05.958Z,77.40
2023-08-15T16:21:39.629Z,78.36
2023-08-15T16:24:12.656Z,78.16
2023-08-15T16:26:46.143Z,78.36
2023-08-15T16:29:20.593Z,77.16
2023-08-15T16:31:53.397Z,78.00
2023-08-15T16:34:26.139Z,78.28
2023-08-15T16:36:58.865Z,77.73
2023-08-15T16:39:31.573Z,78.12
2023-08-15T16:42:04.209Z,77.62
2023-08-15T16:44:38.391Z,77.78
2023-08-15T16:47:11.183Z,77.39
2023-08-15T16:49:46.688Z,77.45
2023-08-15T16:52:20.107Z,77.82
2023-08-15T16:54:53.329Z,79.29
2023-08-15T16:57:26.211Z,76.53
2023-08-15T17:00:00.632Z,78.91
2023-08-15T17:02:33.833Z,79.12
2023-08-15T17:05:07.568Z,78.15
2023-08-15T17:07:40.333Z,78.58
2023-08-15T17:10:13.132Z,80.34
2023-08-15T17:12:47.545Z,80.01
2023-08-15T17:15:21.711Z,81.74
2023-08-15T17:17:54.561Z,79.86
2023-08-15T17:20:27.517Z,80.47
2023-08-15T17:23:00.294Z,79.35
2023-08-15T17:25:33.153Z,79.77
2023-08-15T17:28:06.525Z,80.69
2023-08-15T17:30:40.800Z,79.22
2023-08-15T17:33:14.034Z,80.32
2023-08-15T17:35:47.008Z,79.61
2023-08-15T17:38:19.636Z,79.57
2023-08-15T17:40:52.443Z,78.63
2023-08-15T17:43:25.552Z,78.54
2023-08-15T17:45:59.749Z,79.11
2023-08-15T17:48:32.465Z,79.11
2023-08-15T17:51:05.439Z,79.21
2023-08-15T17:53:38.348Z,79.59
2023-08-15T17:56:11.108Z,78.93
2023-08-15T17:58:50.461Z,78.46
2023-08-15T18:01:25.171Z,78.36
2023-08-15T18:03:59.910Z,78.43
2023-08-15T18:06:32.841Z,78.51
2023-08-15T18:09:07.031Z,78.07
2023-08-15T18:11:39.857Z,77.94
2023-08-15T18:14:14.364Z,78.22
2023-08-15T18:16:50.329Z,77.70
2023-08-15T18:19:23.360Z,77.70
2023-08-15T18:21:56.806Z,77.64
2023-08-15T18:24:29.597Z,77.81
2023-08-15T18:27:03.423Z,77.71
2023-08-15T18:29:36.229Z,77.92
2023-08-15T18:32:10.615Z,77.94
2023-08-15T18:34:43.624Z,78.11
2023-08-15T18:37:16.427Z,78.50
2023-08-15T18:39:49.433Z,78.29
2023-08-15T18:42:22.480Z,78.48
2023-08-15T18:44:55.565Z,78.53
2023-08-15T18:47:29.776Z,78.21
2023-08-15T18:50:03.250Z,78.23
2023-08-15T18:52:36.134Z,78.24
2023-08-15T18:55:09.391Z,78.28
2023-08-15T18:57:42.317Z,78.29
2023-08-15T19:00:17.256Z,78.08
2023-08-15T19:02:53.155Z,78.37
2023-08-15T19:05:26.025Z,78.28
2023-08-15T19:07:58.850Z,78.21
2023-08-15T19:10:32.007Z,78.46
2023-08-15T19:13:05.146Z,78.47
2023-08-15T19:15:39.352Z,78.44
2023-08-15T19:18:14.730Z,78.69
2023-08-15T19:20:47.979Z,78.56
2023-08-15T19:23:21.133Z,78.94
2023-08-15T19:25:54.009Z,79.07
2023-08-15T19:28:27.817Z,79.09
2023-08-15T19:31:00.918Z,78.99
2023-08-15T19:33:35.186Z,79.30
2023-08-15T19:36:08.559Z,79.21
2023-08-15T19:38:41.570Z,79.13
2023-08-15T19:41:17.684Z,79.28
2023-08-15T19:43:57.039Z,79.22
2023-08-15T19:46:30.166Z,79.64
2023-08-15T19:49:04.559Z,79.50
2023-08-15T19:51:37.697Z,79.61
2023-08-15T19:54:10.470Z,79.72
2023-08-15T19:56:43.271Z,79.75
2023-08-15T19:59:16.104Z,79.87
2023-08-15T20:01:48.968Z,79.97
2023-08-15T20:04:23.120Z,79.87
2023-08-15T20:06:55.958Z,79.83
2023-08-15T20:09:28.800Z,79.97
2023-08-15T20:12:01.500Z,79.94
2023-08-15T20:14:34.456Z,79.91
2023-08-15T20:17:07.317Z,79.88
2023-08-15T20:19:41.798Z,79.80
2023-08-15T20:22:16.063Z,79.93
2023-08-15T20:24:50.338Z,80.25
2023-08-15T20:27:23.072Z,80.11
2023-08-15T20:29:58.053Z,80.17
2023-08-15T20:32:31.224Z,80.24
2023-08-15T20:35:06.009Z,80.47
2023-08-15T20:37:38.780Z,80.65
2023-08-15T20:40:12.402Z,80.63
2023-08-15T20:42:45.231Z,80.79
2023-08-15T20:45:18.134Z,80.61
2023-08-15T20:47:50.991Z,80.60
2023-08-15T20:50:25.227Z,80.67
2023-08-15T20:52:57.975Z,80.75
2023-08-15T20:55:31.213Z,80.77
2023-08-15T20:58:04.037Z,80.89
2023-08-15T21:00:37.066Z,80.83
2023-08-15T21:03:09.909Z,80.71
2023-08-15T21:05:45.783Z,81.05
2023-08-15T21:08:18.525Z,81.01
2023-08-15T21:10:51.626Z,80.93
2023-08-15T21:13:24.300Z,80.99
2023-08-15T21:15:57.110Z,81.09
2023-08-15T21:18:29.914Z,81.29
2023-08-15T21:21:04.182Z,81.05
2023-08-15T21:23:36.965Z,81.25
2023-08-15T21:26:10.162Z,81.32
2023-08-15T21:28:43.601Z,81.46
2023-08-15T21:31:16.576Z,81.35
2023-08-15T21:33:49.321Z,81.20
2023-08-15T21:36:23.701Z,81.60
2023-08-15T21:38:56.807Z,81.64
2023-08-15T21:41:30.062Z,81.64
2023-08-15T21:44:02.828Z,81.48
2023-08-15T21:46:35.658Z,81.71
2023-08-15T21:49:08.480Z,81.70
2023-08-15T21:51:42.772Z,81.69
2023-08-15T21:54:15.540Z,81.79
2023-08-15T21:56:48.382Z,81.63
2023-08-15T21:59:23.254Z,81.71
2023-08-15T22:01:56.126Z,81.79
2023-08-15T22:04:28.949Z,81.64
2023-08-15T22:07:03.586Z,81.73
2023-08-15T22:09:36.293Z,81.81
2023-08-15T22:12:09.772Z,81.79
2023-08-15T22:14:44.454Z,81.76
2023-08-15T22:17:19.310Z,81.84
2023-08-15T22:19:53.837Z,81.69
2023-08-15T22:22:28.635Z,81.79
2023-08-15T22:25:05.984Z,81.84
2023-08-15T22:27:39.725Z,81.77
2023-08-15T22:30:12.914Z,81.83
2023-08-15T22:32:45.693Z,81.93
2023-08-15T22:35:18.779Z,81.85
2023-08-15T22:37:52.895Z,81.94
2023-08-15T22:40:25.718Z,81.79
2023-08-15T22:42:58.608Z,81.98
2023-08-15T22:45:31.390Z,81.94
2023-08-15T22:48:04.226Z,82.11
2023-08-15T22:50:37.113Z,82.03
2023-08-15T22:53:11.862Z,82.24
2023-08-15T22:55:44.642Z,82.29
2023-08-15T22:58:18.870Z,82.31
2023-08-15T23:00:55.585Z,82.29
2023-08-15T23:03:28.518Z,82.39
2023-08-15T23:06:02.068Z,82.41
2023-08-15T23:08:36.218Z,82.42
2023-08-15T23:11:09.196Z,82.43
2023-08-15T23:13:41.984Z,82.38
2023-08-15T23:16:15.131Z,82.30
2023-08-15T23:18:47.926Z,82.34
2023-08-15T23:21:20.771Z,82.39
2023-08-15T23:23:54.967Z,82.39
2023-08-15T23:26:27.710Z,82.36
2023-08-15T23:29:00.657Z,82.44
2023-08-15T23:31:34.164Z,82.50
2023-08-15T23:34:07.787Z,82.45
2023-08-15T23:36:40.685Z,82.48
2023-08-15T23:39:16.872Z,82.43
2023-08-15T23:41:50.379Z,82.35
2023-08-15T23:44:23.773Z,82.40
2023-08-15T23:46:56.598Z,82.29
2023-08-15T23:49:29.630Z,82.49
2023-08-15T23:52:02.470Z,82.34
2023-08-15T23:54:36.705Z,82.34
2023-08-15T23:57:09.476Z,82.32
2023-08-15T23:59:42.295Z,82.25
